createdAt,value
2022-08-30T00:00:44.650Z,254.52
2022-08-30T00:01:29.046Z,254.52
2022-08-30T00:02:14.492Z,254.52
2022-08-30T00:02:59.794Z,254.52
2022-08-30T00:03:44.788Z,254.52
2022-08-30T00:04:29.620Z,254.52
2022-08-30T00:05:14.674Z,254.52
2022-08-30T00:05:59.846Z,254.52
2022-08-30T00:06:45.201Z,254.52
2022-08-30T00:07:30.016Z,254.52
2022-08-30T00:08:15.008Z,254.52
2022-08-30T00:08:59.681Z,254.52
2022-08-30T00:09:44.916Z,254.52
2022-08-30T00:10:30.066Z,254.52
2022-08-30T00:11:15.442Z,254.52
2022-08-30T00:12:00.226Z,254.52
2022-08-30T00:12:45.238Z,254.52
2022-08-30T00:13:30.312Z,254.52
2022-08-30T00:14:15.048Z,254.52
2022-08-30T00:15:00.203Z,254.52
2022-08-30T00:15:45.505Z,254.52
2022-08-30T00:16:30.317Z,254.52
2022-08-30T00:17:14.863Z,328.42
2022-08-30T00:18:00.131Z,292.14
2022-08-30T00:18:45.182Z,287.24
2022-08-30T00:19:30.544Z,328.42
2022-08-30T00:20:15.188Z,350.96
2022-08-30T00:21:00.055Z,384.02
2022-08-30T00:21:45.299Z,423.41
2022-08-30T00:22:30.592Z,450.00
2022-08-30T00:23:15.774Z,441.13
2022-08-30T00:24:00.263Z,462.80
2022-08-30T00:24:45.327Z,439.16
2022-08-30T00:25:30.695Z,409.62
2022-08-30T00:26:15.766Z,407.65
2022-08-30T00:27:00.487Z,422.42
2022-08-30T00:27:45.753Z,408.64
2022-08-30T00:28:30.972Z,375.16
2022-08-30T00:29:15.761Z,417.50
2022-08-30T00:30:00.816Z,313.13
2022-08-30T00:30:46.354Z,547.48
2022-08-30T00:31:31.285Z,534.68
2022-08-30T00:32:15.988Z,525.82
2022-08-30T00:33:01.146Z,378.11
2022-08-30T00:33:46.817Z,472.64
2022-08-30T00:34:31.605Z,354.48
2022-08-30T00:35:16.429Z,485.44
2022-08-30T00:36:01.383Z,338.73
2022-08-30T00:36:46.331Z,302.29
2022-08-30T00:37:31.408Z,315.10
2022-08-30T00:38:16.447Z,306.23
2022-08-30T00:39:01.511Z,367.28
2022-08-30T00:39:46.553Z,282.60
2022-08-30T00:40:31.887Z,290.48
2022-08-30T00:41:16.845Z,295.40
2022-08-30T00:42:01.722Z,515.97
2022-08-30T00:42:50.105Z,507.82
2022-08-30T00:43:31.735Z,412.73
2022-08-30T00:44:17.199Z,375.47
2022-08-30T00:45:02.357Z,575.46
2022-08-30T00:45:47.107Z,581.35
2022-08-30T00:46:32.052Z,589.19
2022-08-30T00:47:17.119Z,591.79
2022-08-30T00:48:01.969Z,581.94
2022-08-30T00:48:47.437Z,591.79
2022-08-30T00:49:32.389Z,584.29
2022-08-30T00:50:17.241Z,588.21
2022-08-30T00:51:02.839Z,572.52
2022-08-30T00:51:47.155Z,574.48
2022-08-30T00:52:32.303Z,578.41
2022-08-30T00:53:17.563Z,597.03
2022-08-30T00:54:03.094Z,574.48
2022-08-30T00:54:47.475Z,592.13
2022-08-30T00:55:32.642Z,573.50
2022-08-30T00:56:17.519Z,576.44
2022-08-30T00:57:02.443Z,578.41
2022-08-30T00:57:47.295Z,574.48
2022-08-30T00:58:32.761Z,590.17
2022-08-30T00:59:17.813Z,564.68
2022-08-30T01:00:02.874Z,588.21
2022-08-30T01:00:47.626Z,580.37
2022-08-30T01:01:34.315Z,580.37
2022-08-30T01:02:17.884Z,587.23
2022-08-30T01:03:03.225Z,580.37
2022-08-30T01:03:47.938Z,592.13
2022-08-30T01:04:33.209Z,600.95
2022-08-30T01:05:18.852Z,585.27
2022-08-30T01:06:03.329Z,591.15
2022-08-30T01:06:48.992Z,605.86
2022-08-30T01:07:33.242Z,597.03
2022-08-30T01:08:20.134Z,590.17
2022-08-30T01:09:03.345Z,591.15
2022-08-30T01:09:48.516Z,587.23
2022-08-30T01:10:33.572Z,586.25
2022-08-30T01:11:18.781Z,573.50
2022-08-30T01:12:03.676Z,574.48
2022-08-30T01:12:48.932Z,531.35
2022-08-30T01:13:33.579Z,494.10
2022-08-30T01:14:18.914Z,440.18
2022-08-30T01:15:03.895Z,468.61
2022-08-30T01:15:49.134Z,474.49
2022-08-30T01:16:34.114Z,527.43
2022-08-30T01:17:19.333Z,464.69
2022-08-30T01:18:04.427Z,508.80
2022-08-30T01:18:49.386Z,546.05
2022-08-30T01:19:34.652Z,522.53
2022-08-30T01:20:19.619Z,592.13
2022-08-30T01:21:04.489Z,582.33
2022-08-30T01:21:49.571Z,563.70
2022-08-30T01:22:34.467Z,579.85
2022-08-30T01:23:19.583Z,587.67
2022-08-30T01:24:04.826Z,573.98
2022-08-30T01:24:49.643Z,578.87
2022-08-30T01:25:34.789Z,564.20
2022-08-30T01:26:21.862Z,564.20
2022-08-30T01:27:05.214Z,557.36
2022-08-30T01:27:50.166Z,566.16
2022-08-30T01:28:34.922Z,567.13
2022-08-30T01:29:20.281Z,562.24
2022-08-30T01:30:05.880Z,570.07
2022-08-30T01:30:50.479Z,566.16
2022-08-30T01:31:35.554Z,556.84
2022-08-30T01:32:21.251Z,560.76
2022-08-30T01:33:05.877Z,558.80
2022-08-30T01:33:50.415Z,553.44
2022-08-30T01:34:35.060Z,569.09
2022-08-30T01:35:20.840Z,551.94
2022-08-30T01:36:05.990Z,567.13
2022-08-30T01:36:50.692Z,554.42
2022-08-30T01:37:35.381Z,582.78
2022-08-30T01:38:21.157Z,579.85
2022-08-30T01:39:05.821Z,588.65
2022-08-30T01:39:50.757Z,563.22
2022-08-30T01:40:35.816Z,584.73
2022-08-30T01:41:21.423Z,545.62
2022-08-30T01:42:06.134Z,538.78
2022-08-30T01:42:50.899Z,548.56
2022-08-30T01:43:35.951Z,558.33
2022-08-30T01:44:21.425Z,552.47
2022-08-30T01:45:06.378Z,551.49
2022-08-30T01:45:51.351Z,579.85
2022-08-30T01:46:36.276Z,587.67
2022-08-30T01:47:21.223Z,584.73
2022-08-30T01:48:06.639Z,596.47
2022-08-30T01:48:53.774Z,584.73
2022-08-30T01:49:36.499Z,599.40
2022-08-30T01:50:21.447Z,587.67
2022-08-30T01:51:07.118Z,587.67
2022-08-30T01:51:51.564Z,584.73
2022-08-30T01:52:36.509Z,601.36
2022-08-30T01:53:21.638Z,592.56
2022-08-30T01:54:06.946Z,577.89
2022-08-30T01:54:51.990Z,586.69
2022-08-30T01:55:36.950Z,589.62
2022-08-30T01:56:22.203Z,584.73
2022-08-30T01:57:06.962Z,594.51
2022-08-30T01:57:52.316Z,594.51
2022-08-30T01:58:37.172Z,590.60
2022-08-30T01:59:22.327Z,607.22
2022-08-30T02:00:07.077Z,594.51
2022-08-30T02:00:52.038Z,595.49
2022-08-30T02:01:37.830Z,596.47
2022-08-30T02:02:22.665Z,590.60
2022-08-30T02:03:07.513Z,589.62
2022-08-30T02:03:52.611Z,579.85
2022-08-30T02:04:37.624Z,589.62
2022-08-30T02:05:22.804Z,583.76
2022-08-30T02:06:07.535Z,579.85
2022-08-30T02:06:52.589Z,596.47
2022-08-30T02:07:37.544Z,584.73
2022-08-30T02:08:23.069Z,601.36
2022-08-30T02:09:08.064Z,595.49
2022-08-30T02:09:53.061Z,589.62
2022-08-30T02:10:38.078Z,575.93
2022-08-30T02:11:23.339Z,578.87
2022-08-30T02:12:07.985Z,575.93
2022-08-30T02:12:53.137Z,572.02
2022-08-30T02:13:38.210Z,578.87
2022-08-30T02:14:23.503Z,586.69
2022-08-30T02:15:08.513Z,590.60
2022-08-30T02:15:53.602Z,575.93
2022-08-30T02:16:38.562Z,590.60
2022-08-30T02:17:24.301Z,594.51
2022-08-30T02:18:08.646Z,592.56
2022-08-30T02:18:53.593Z,598.42
2022-08-30T02:19:38.664Z,595.49
2022-08-30T02:20:23.905Z,599.40
2022-08-30T02:21:09.143Z,580.82
2022-08-30T02:21:53.946Z,601.36
2022-08-30T02:22:38.875Z,581.80
2022-08-30T02:23:24.447Z,579.85
2022-08-30T02:24:09.090Z,571.05
2022-08-30T02:24:54.044Z,592.56
2022-08-30T02:25:39.307Z,589.62
2022-08-30T02:26:24.606Z,593.53
2022-08-30T02:27:09.421Z,583.76
2022-08-30T02:27:55.091Z,598.42
2022-08-30T02:28:49.152Z,596.47
2022-08-30T02:29:24.591Z,598.99
2022-08-30T02:30:09.440Z,594.51
2022-08-30T02:30:54.769Z,613.09
2022-08-30T02:31:39.467Z,589.62
2022-08-30T02:32:24.814Z,602.91
2022-08-30T02:33:09.925Z,580.82
2022-08-30T02:33:54.817Z,586.69
2022-08-30T02:34:39.775Z,601.36
2022-08-30T02:35:24.637Z,601.36
2022-08-30T02:36:09.571Z,596.47
2022-08-30T02:36:54.848Z,590.60
2022-08-30T02:37:39.720Z,586.25
2022-08-30T02:38:26.468Z,598.99
2022-08-30T02:39:10.344Z,598.99
2022-08-30T02:39:54.943Z,594.09
2022-08-30T02:40:39.958Z,590.17
2022-08-30T02:41:25.918Z,604.87
2022-08-30T02:42:10.337Z,606.84
2022-08-30T02:42:55.466Z,604.87
2022-08-30T02:43:40.251Z,598.99
2022-08-30T02:44:25.504Z,595.07
2022-08-30T02:45:10.503Z,598.01
2022-08-30T02:45:55.660Z,583.31
2022-08-30T02:46:40.506Z,598.99
2022-08-30T02:47:25.474Z,599.40
2022-08-30T02:48:10.451Z,583.76
2022-08-30T02:48:55.740Z,599.40
2022-08-30T02:49:40.902Z,592.56
2022-08-30T02:50:26.060Z,593.53
2022-08-30T02:51:11.718Z,581.80
2022-08-30T02:51:55.919Z,590.60
2022-08-30T02:52:40.924Z,585.98
2022-08-30T02:53:26.290Z,590.60
2022-08-30T02:54:11.763Z,589.62
2022-08-30T02:54:56.196Z,579.16
2022-08-30T02:55:41.252Z,578.18
2022-08-30T02:56:26.413Z,591.83
2022-08-30T02:57:15.236Z,570.38
2022-08-30T02:57:56.336Z,583.06
2022-08-30T02:58:41.375Z,589.88
2022-08-30T02:59:26.844Z,582.08
2022-08-30T03:00:11.506Z,598.66
2022-08-30T03:00:56.505Z,603.31
2022-08-30T03:01:41.562Z,597.45
2022-08-30T03:02:26.557Z,604.29
2022-08-30T03:03:12.023Z,581.80
2022-08-30T03:03:56.793Z,593.53
2022-08-30T03:04:42.457Z,592.56
2022-08-30T03:05:27.087Z,599.40
2022-08-30T03:06:12.146Z,607.22
2022-08-30T03:06:56.902Z,613.09
2022-08-30T03:07:42.160Z,604.29
2022-08-30T03:08:27.688Z,601.36
2022-08-30T03:09:12.993Z,615.05
2022-08-30T03:09:57.390Z,613.09
2022-08-30T03:10:42.482Z,604.87
2022-08-30T03:11:27.638Z,608.80
2022-08-30T03:12:12.496Z,606.84
2022-08-30T03:12:57.455Z,628.40
2022-08-30T03:13:42.400Z,608.80
2022-08-30T03:14:27.904Z,607.82
2022-08-30T03:15:12.633Z,618.60
2022-08-30T03:15:57.985Z,614.68
2022-08-30T03:16:42.786Z,607.22
2022-08-30T03:17:27.989Z,633.63
2022-08-30T03:18:12.984Z,624.82
2022-08-30T03:18:57.495Z,615.05
2022-08-30T03:19:42.750Z,601.36
2022-08-30T03:20:28.007Z,633.63
2022-08-30T03:21:12.930Z,625.80
2022-08-30T03:21:58.018Z,626.78
2022-08-30T03:22:42.980Z,612.11
2022-08-30T03:23:28.341Z,628.74
2022-08-30T03:24:13.192Z,625.80
2022-08-30T03:24:58.279Z,631.67
2022-08-30T03:25:43.212Z,619.94
2022-08-30T03:26:28.464Z,618.96
2022-08-30T03:27:13.600Z,618.16
2022-08-30T03:27:58.580Z,616.02
2022-08-30T03:28:43.533Z,620.11
2022-08-30T03:29:28.790Z,629.86
2022-08-30T03:30:13.721Z,617.18
2022-08-30T03:30:59.005Z,612.30
2022-08-30T03:31:52.490Z,622.99
2022-08-30T03:32:29.223Z,630.69
2022-08-30T03:33:13.937Z,612.31
2022-08-30T03:33:59.206Z,621.08
2022-08-30T03:34:44.189Z,610.36
2022-08-30T03:35:29.037Z,593.44
2022-08-30T03:36:14.397Z,611.11
2022-08-30T03:36:59.356Z,611.11
2022-08-30T03:37:44.514Z,594.58
2022-08-30T03:38:29.572Z,603.23
2022-08-30T03:39:14.600Z,617.64
2022-08-30T03:39:59.524Z,606.11
2022-08-30T03:40:44.502Z,600.37
2022-08-30T03:41:29.486Z,589.78
2022-08-30T03:42:14.792Z,601.33
2022-08-30T03:42:59.742Z,592.72
2022-08-30T03:43:44.565Z,583.16
2022-08-30T03:44:29.618Z,584.02
2022-08-30T03:45:14.979Z,565.86
2022-08-30T03:46:00.207Z,571.57
2022-08-30T03:46:44.888Z,573.94
2022-08-30T03:47:29.672Z,574.42
2022-08-30T03:48:14.996Z,574.42
2022-08-30T03:49:00.056Z,590.59
2022-08-30T03:49:45.051Z,578.70
2022-08-30T03:50:30.166Z,568.30
2022-08-30T03:51:15.015Z,564.10
2022-08-30T03:52:00.352Z,575.86
2022-08-30T03:52:45.337Z,561.81
2022-08-30T03:53:30.392Z,581.08
2022-08-30T03:54:15.558Z,589.64
2022-08-30T03:55:00.414Z,581.08
2022-08-30T03:55:45.256Z,572.52
2022-08-30T03:56:30.413Z,588.16
2022-08-30T03:57:20.096Z,581.54
2022-08-30T03:58:00.628Z,585.83
2022-08-30T03:58:45.683Z,578.70
2022-08-30T03:59:31.012Z,574.42
2022-08-30T04:00:15.592Z,588.16
2022-08-30T04:01:00.794Z,578.70
2022-08-30T04:01:46.238Z,571.14
2022-08-30T04:02:30.919Z,593.44
2022-08-30T04:03:15.948Z,577.27
2022-08-30T04:04:00.872Z,568.71
2022-08-30T04:04:45.824Z,585.83
2022-08-30T04:05:30.685Z,589.64
2022-08-30T04:06:16.206Z,576.32
2022-08-30T04:07:01.151Z,575.37
2022-08-30T04:07:45.949Z,563.68
2022-08-30T04:08:31.260Z,593.68
2022-08-30T04:09:15.865Z,579.34
2022-08-30T04:10:01.201Z,564.04
2022-08-30T04:10:46.897Z,575.37
2022-08-30T04:11:31.438Z,564.91
2022-08-30T04:12:16.200Z,575.37
2022-08-30T04:13:01.552Z,560.74
2022-08-30T04:13:46.620Z,577.76
2022-08-30T04:14:31.668Z,561.11
2022-08-30T04:15:16.540Z,568.30
2022-08-30T04:16:01.612Z,563.57
2022-08-30T04:16:46.670Z,557.90
2022-08-30T04:17:31.684Z,548.44
2022-08-30T04:18:16.644Z,560.74
2022-08-30T04:19:01.503Z,560.74
2022-08-30T04:19:46.884Z,556.95
2022-08-30T04:20:32.370Z,564.52
2022-08-30T04:21:16.865Z,568.30
2022-08-30T04:22:02.040Z,565.46
2022-08-30T04:22:46.877Z,578.70
2022-08-30T04:23:31.833Z,570.19
2022-08-30T04:24:17.013Z,570.62
2022-08-30T04:25:02.058Z,549.68
2022-08-30T04:25:47.830Z,566.81
2022-08-30T04:26:32.163Z,574.42
2022-08-30T04:27:16.970Z,577.29
2022-08-30T04:28:03.090Z,563.85
2022-08-30T04:28:48.347Z,375.66
2022-08-30T04:29:32.688Z,471.85
2022-08-30T04:30:17.659Z,453.79
2022-08-30T04:31:02.704Z,434.45
2022-08-30T04:31:47.694Z,463.97
2022-08-30T04:32:32.875Z,423.29
2022-08-30T04:33:18.481Z,342.74
2022-08-30T04:34:02.721Z,179.18
2022-08-30T04:34:48.494Z,166.25
2022-08-30T04:35:32.935Z,165.41
2022-08-30T04:36:18.095Z,160.64
2022-08-30T04:37:02.947Z,157.07
2022-08-30T04:37:49.000Z,155.71
2022-08-30T04:38:33.367Z,110.23
2022-08-30T04:39:18.414Z,166.89
2022-08-30T04:40:03.103Z,181.91
2022-08-30T04:40:48.304Z,171.80
2022-08-30T04:41:33.283Z,183.85
2022-08-30T04:42:18.718Z,140.95
2022-08-30T04:43:03.290Z,171.96
2022-08-30T04:43:48.509Z,165.38
2022-08-30T04:44:33.700Z,209.05
2022-08-30T04:45:19.029Z,163.50
2022-08-30T04:46:03.751Z,184.78
2022-08-30T04:46:48.896Z,173.58
2022-08-30T04:47:33.838Z,173.58
2022-08-30T04:48:19.030Z,187.58
2022-08-30T04:49:03.746Z,184.78
2022-08-30T04:49:48.732Z,197.85
2022-08-30T04:50:33.975Z,170.46
2022-08-30T04:51:19.348Z,160.52
2022-08-30T04:52:04.436Z,183.85
2022-08-30T04:52:48.998Z,185.71
2022-08-30T04:53:34.084Z,179.18
2022-08-30T04:54:20.179Z,157.72
2022-08-30T04:55:03.904Z,134.39
2022-08-30T04:55:49.219Z,194.56
2022-08-30T04:56:34.519Z,223.04
2022-08-30T04:57:19.642Z,223.04
2022-08-30T04:58:04.536Z,183.75
2022-08-30T04:58:49.790Z,180.28
2022-08-30T04:59:35.390Z,144.24
2022-08-30T05:00:19.615Z,170.88
2022-08-30T05:01:04.635Z,158.94
2022-08-30T05:01:49.995Z,159.86
2022-08-30T05:02:34.515Z,141.48
2022-08-30T05:03:19.917Z,184.66
2022-08-30T05:04:05.043Z,135.05
2022-08-30T05:04:50.311Z,149.75
2022-08-30T05:05:35.093Z,147.91
2022-08-30T05:06:20.252Z,166.29
2022-08-30T05:07:05.101Z,143.32
2022-08-30T05:07:50.365Z,135.97
2022-08-30T05:08:35.317Z,171.80
2022-08-30T05:09:20.506Z,226.74
2022-08-30T05:10:09.131Z,135.68
2022-08-30T05:10:50.280Z,168.46
2022-08-30T05:11:35.193Z,150.25
2022-08-30T05:12:20.905Z,166.78
2022-08-30T05:13:05.551Z,158.44
2022-08-30T05:13:50.613Z,158.44
2022-08-30T05:14:35.457Z,157.53
2022-08-30T05:15:20.736Z,157.53
2022-08-30T05:16:05.655Z,142.96
2022-08-30T05:16:50.633Z,142.05
2022-08-30T05:17:35.892Z,156.62
2022-08-30T05:18:21.047Z,147.52
2022-08-30T05:19:05.801Z,138.41
2022-08-30T05:19:50.867Z,146.61
2022-08-30T05:20:36.010Z,142.05
2022-08-30T05:21:21.373Z,146.08
2022-08-30T05:22:06.330Z,135.05
2022-08-30T05:22:53.557Z,138.73
2022-08-30T05:23:36.338Z,158.94
2022-08-30T05:24:21.403Z,143.32
2022-08-30T05:25:06.365Z,132.98
2022-08-30T05:25:52.133Z,143.32
2022-08-30T05:26:36.726Z,141.48
2022-08-30T05:27:21.719Z,135.05
2022-08-30T05:28:06.932Z,143.32
2022-08-30T05:28:51.638Z,152.51
2022-08-30T05:29:36.600Z,126.46
2022-08-30T05:30:21.745Z,126.46
2022-08-30T05:31:06.627Z,74.77
2022-08-30T05:31:51.998Z,227.71
2022-08-30T05:32:36.921Z,122.89
2022-08-30T05:33:22.209Z,200.65
2022-08-30T05:34:07.132Z,207.67
2022-08-30T05:34:52.351Z,227.40
2022-08-30T05:35:37.243Z,207.67
2022-08-30T05:36:22.642Z,208.53
2022-08-30T05:37:07.355Z,200.15
2022-08-30T05:37:52.625Z,221.27
2022-08-30T05:38:37.785Z,198.57
2022-08-30T05:39:22.632Z,226.46
2022-08-30T05:40:11.012Z,192.63
2022-08-30T05:40:53.011Z,173.84
2022-08-30T05:41:37.593Z,153.17
2022-08-30T05:42:22.986Z,140.95
2022-08-30T05:43:07.600Z,161.62
2022-08-30T05:43:52.946Z,177.60
2022-08-30T05:44:37.847Z,153.17
2022-08-30T05:45:23.392Z,145.59
2022-08-30T05:46:08.056Z,147.45
2022-08-30T05:46:52.993Z,131.55
2022-08-30T05:47:38.210Z,134.53
2022-08-30T05:48:23.624Z,64.56
2022-08-30T05:49:08.477Z,128.79
2022-08-30T05:49:53.341Z,114.53
2022-08-30T05:50:39.874Z,146.59
2022-08-30T05:51:23.636Z,177.60
2022-08-30T05:52:08.288Z,166.32
2022-08-30T05:52:53.448Z,164.53
2022-08-30T05:53:38.215Z,186.28
2022-08-30T05:54:23.860Z,169.26
2022-08-30T05:55:08.502Z,195.74
2022-08-30T05:55:54.078Z,181.55
2022-08-30T05:56:38.624Z,184.39
2022-08-30T05:57:23.787Z,192.90
2022-08-30T05:58:08.903Z,191.01
2022-08-30T05:58:54.003Z,181.55
2022-08-30T05:59:38.865Z,152.24
2022-08-30T06:00:24.325Z,189.12
2022-08-30T06:01:08.956Z,176.66
2022-08-30T06:01:54.290Z,163.59
2022-08-30T06:02:39.141Z,175.88
2022-08-30T06:03:25.313Z,182.50
2022-08-30T06:04:09.392Z,172.10
2022-08-30T06:04:54.242Z,140.95
2022-08-30T06:05:39.067Z,151.29
2022-08-30T06:06:24.451Z,168.20
2022-08-30T06:07:11.651Z,178.54
2022-08-30T06:07:54.363Z,222.21
2022-08-30T06:08:39.125Z,187.23
2022-08-30T06:09:24.505Z,210.87
2022-08-30T06:10:09.845Z,204.25
2022-08-30T06:10:54.688Z,189.12
2022-08-30T06:11:39.746Z,179.48
2022-08-30T06:12:24.598Z,179.48
2022-08-30T06:13:09.791Z,179.48
2022-08-30T06:13:54.972Z,211.81
2022-08-30T06:14:39.975Z,217.06
2022-08-30T06:15:25.649Z,226.46
2022-08-30T06:16:10.160Z,219.88
2022-08-30T06:16:54.908Z,229.28
2022-08-30T06:17:40.054Z,219.45
2022-08-30T06:18:28.498Z,223.64
2022-08-30T06:19:10.010Z,221.76
2022-08-30T06:19:55.284Z,228.34
2022-08-30T06:20:40.331Z,223.04
2022-08-30T06:21:25.191Z,219.31
2022-08-30T06:22:10.260Z,204.72
2022-08-30T06:22:55.291Z,200.65
2022-08-30T06:23:40.229Z,181.27
2022-08-30T06:24:41.030Z,216.51
2022-08-30T06:25:10.664Z,225.52
2022-08-30T06:25:56.445Z,203.91
2022-08-30T06:26:40.624Z,217.49
2022-08-30T06:27:25.993Z,205.79
2022-08-30T06:28:11.002Z,223.49
2022-08-30T06:28:55.749Z,220.64
2022-08-30T06:29:40.932Z,242.51
2022-08-30T06:30:25.995Z,234.92
2022-08-30T06:31:11.237Z,260.03
2022-08-30T06:31:56.683Z,260.03
2022-08-30T06:32:40.718Z,272.46
2022-08-30T06:33:26.074Z,272.46
2022-08-30T06:34:11.446Z,276.29
2022-08-30T06:34:56.396Z,267.03
2022-08-30T06:35:56.709Z,281.83
2022-08-30T06:36:26.349Z,279.52
2022-08-30T06:37:11.356Z,293.45
2022-08-30T06:37:56.182Z,294.42
2022-08-30T06:38:41.571Z,291.05
2022-08-30T06:39:26.735Z,276.29
2022-08-30T06:40:12.208Z,304.01
2022-08-30T06:40:56.785Z,298.73
2022-08-30T06:41:42.008Z,284.62
2022-08-30T06:42:26.658Z,298.73
2022-08-30T06:43:12.011Z,291.05
2022-08-30T06:43:56.997Z,292.97
2022-08-30T06:44:42.025Z,287.21
2022-08-30T06:45:27.124Z,294.42
2022-08-30T06:46:12.163Z,295.39
2022-08-30T06:46:57.391Z,293.52
2022-08-30T06:47:42.149Z,303.23
2022-08-30T06:48:27.260Z,313.88
2022-08-30T06:49:12.304Z,314.86
2022-08-30T06:49:56.925Z,295.30
2022-08-30T06:50:42.220Z,286.50
2022-08-30T06:51:26.710Z,257.83
2022-08-30T06:52:12.288Z,247.05
2022-08-30T06:52:57.343Z,213.16
2022-08-30T06:53:42.121Z,147.65
2022-08-30T06:54:27.042Z,132.56
2022-08-30T06:55:12.303Z,178.43
2022-08-30T06:55:57.877Z,177.45
2022-08-30T06:56:57.773Z,208.27
2022-08-30T06:57:27.734Z,234.68
2022-08-30T06:58:12.893Z,274.72
2022-08-30T06:58:57.690Z,261.42
2022-08-30T06:59:43.077Z,236.32
2022-08-30T07:00:27.789Z,225.49
2022-08-30T07:01:12.958Z,242.23
2022-08-30T07:01:58.310Z,247.15
2022-08-30T07:02:43.746Z,252.55
2022-08-30T07:03:28.473Z,249.59
2022-08-30T07:04:13.283Z,216.40
2022-08-30T07:04:58.485Z,214.43
2022-08-30T07:05:43.712Z,251.98
2022-08-30T07:06:28.248Z,244.43
2022-08-30T07:07:13.660Z,198.62
2022-08-30T07:07:58.955Z,198.62
2022-08-30T07:08:44.036Z,198.62
2022-08-30T07:09:28.307Z,203.94
2022-08-30T07:10:13.637Z,185.04
2022-08-30T07:10:58.805Z,178.07
2022-08-30T07:11:43.812Z,182.05
2022-08-30T07:12:29.113Z,199.80
2022-08-30T07:13:14.007Z,189.86
2022-08-30T07:13:59.025Z,209.91
2022-08-30T07:14:44.325Z,177.08
2022-08-30T07:15:29.380Z,124.35
2022-08-30T07:16:13.845Z,162.15
2022-08-30T07:16:59.401Z,154.20
2022-08-30T07:17:44.814Z,139.27
2022-08-30T07:18:29.969Z,165.26
2022-08-30T07:19:20.339Z,150.22
2022-08-30T07:19:59.277Z,147.23
2022-08-30T07:20:44.637Z,164.14
2022-08-30T07:21:30.135Z,164.14
2022-08-30T07:22:14.846Z,202.09
2022-08-30T07:22:59.617Z,208.06
2022-08-30T07:23:45.167Z,208.06
2022-08-30T07:24:31.190Z,182.73
2022-08-30T07:25:14.940Z,176.93
2022-08-30T07:25:59.866Z,161.16
2022-08-30T07:26:44.878Z,188.02
2022-08-30T07:27:29.934Z,197.11
2022-08-30T07:28:15.326Z,197.11
2022-08-30T07:28:59.886Z,189.15
2022-08-30T07:29:44.898Z,185.04
2022-08-30T07:30:30.060Z,185.04
2022-08-30T07:31:15.249Z,214.88
2022-08-30T07:32:00.483Z,222.84
2022-08-30T07:32:45.797Z,222.84
2022-08-30T07:33:30.483Z,207.10
2022-08-30T07:34:15.549Z,187.87
2022-08-30T07:35:00.468Z,144.13
2022-08-30T07:35:45.351Z,110.96
2022-08-30T07:36:30.624Z,110.96
2022-08-30T07:37:18.275Z,166.00
2022-08-30T07:38:00.621Z,157.05
2022-08-30T07:38:45.603Z,173.10
2022-08-30T07:39:31.831Z,121.41
2022-08-30T07:40:15.711Z,137.87
2022-08-30T07:41:00.757Z,96.93
2022-08-30T07:41:46.007Z,96.93
2022-08-30T07:42:30.762Z,187.04
2022-08-30T07:43:16.307Z,174.17
2022-08-30T07:44:01.080Z,192.69
2022-08-30T07:44:46.124Z,167.99
2022-08-30T07:45:31.187Z,158.53
2022-08-30T07:46:16.389Z,165.25
2022-08-30T07:47:01.300Z,178.23
2022-08-30T07:47:46.052Z,160.78
2022-08-30T07:48:31.224Z,152.73
2022-08-30T07:49:16.310Z,145.79
2022-08-30T07:50:01.528Z,142.16
2022-08-30T07:50:46.335Z,115.36
2022-08-30T07:51:31.334Z,86.05
2022-08-30T07:52:16.490Z,122.14
2022-08-30T07:53:01.365Z,121.80
2022-08-30T07:53:47.417Z,121.80
2022-08-30T07:54:31.659Z,184.04
2022-08-30T07:55:16.404Z,134.07
2022-08-30T07:56:01.781Z,134.07
2022-08-30T07:56:49.081Z,134.07
2022-08-30T07:57:31.880Z,120.73
2022-08-30T07:58:17.052Z,138.34
2022-08-30T07:59:01.917Z,130.05
2022-08-30T07:59:47.057Z,126.04
2022-08-30T08:00:31.985Z,129.33
2022-08-30T08:01:17.328Z,141.36
2022-08-30T08:02:02.148Z,133.30
2022-08-30T08:02:47.097Z,162.15
2022-08-30T08:03:32.027Z,219.85
2022-08-30T08:04:17.086Z,220.85
2022-08-30T08:05:02.044Z,225.82
2022-08-30T08:05:47.196Z,170.11
2022-08-30T08:06:34.835Z,223.65
2022-08-30T08:07:17.517Z,230.61
2022-08-30T08:08:02.978Z,226.63
2022-08-30T08:08:47.557Z,226.63
2022-08-30T08:09:32.376Z,227.81
2022-08-30T08:10:17.739Z,230.88
2022-08-30T08:11:02.806Z,232.79
2022-08-30T08:11:47.749Z,220.85
2022-08-30T08:12:33.046Z,200.95
2022-08-30T08:13:18.054Z,220.85
2022-08-30T08:14:03.711Z,244.72
2022-08-30T08:14:47.978Z,237.93
2022-08-30T08:15:32.966Z,219.48
2022-08-30T08:16:18.086Z,208.91
2022-08-30T08:17:03.043Z,213.67
2022-08-30T08:17:48.095Z,213.52
2022-08-30T08:18:33.264Z,213.52
2022-08-30T08:19:18.752Z,184.31
2022-08-30T08:20:03.166Z,218.05
2022-08-30T08:20:48.635Z,207.92
2022-08-30T08:21:33.586Z,208.06
2022-08-30T08:22:21.255Z,170.11
2022-08-30T08:23:03.389Z,210.05
2022-08-30T08:23:48.456Z,217.02
2022-08-30T08:24:33.913Z,214.04
2022-08-30T08:25:19.027Z,231.96
2022-08-30T08:26:03.939Z,209.06
2022-08-30T08:26:48.847Z,220.01
2022-08-30T08:27:33.730Z,237.93
2022-08-30T08:28:19.025Z,223.00
2022-08-30T08:29:03.881Z,229.96
2022-08-30T08:29:49.044Z,213.52
2022-08-30T08:30:34.367Z,247.88
2022-08-30T08:31:19.419Z,230.96
2022-08-30T08:32:04.380Z,222.00
2022-08-30T08:32:49.345Z,204.08
2022-08-30T08:33:34.384Z,153.20
2022-08-30T08:34:19.645Z,153.20
2022-08-30T08:35:04.609Z,160.04
2022-08-30T08:35:49.719Z,210.40
2022-08-30T08:36:34.617Z,252.86
2022-08-30T08:37:20.840Z,238.56
2022-08-30T08:38:05.043Z,238.56
2022-08-30T08:38:49.986Z,248.50
2022-08-30T08:39:35.831Z,258.44
2022-08-30T08:40:20.112Z,248.50
2022-08-30T08:41:04.995Z,261.42
2022-08-30T08:41:50.135Z,244.72
2022-08-30T08:42:35.474Z,257.66
2022-08-30T08:43:20.562Z,264.62
2022-08-30T08:44:05.283Z,251.69
2022-08-30T08:44:50.438Z,243.73
2022-08-30T08:45:35.978Z,245.72
2022-08-30T08:46:20.898Z,254.67
2022-08-30T08:47:05.815Z,249.70
2022-08-30T08:47:51.144Z,257.66
2022-08-30T08:48:51.845Z,260.64
2022-08-30T08:49:20.607Z,276.56
2022-08-30T08:50:05.653Z,272.58
2022-08-30T08:50:51.093Z,262.63
2022-08-30T08:51:35.961Z,226.82
2022-08-30T08:52:20.897Z,175.09
2022-08-30T08:53:06.057Z,196.97
2022-08-30T08:53:51.012Z,175.09
2022-08-30T08:54:36.073Z,181.06
2022-08-30T08:55:21.181Z,178.07
2022-08-30T08:56:06.385Z,198.96
2022-08-30T08:56:51.190Z,208.91
2022-08-30T08:57:36.289Z,232.87
2022-08-30T08:58:21.152Z,257.66
2022-08-30T08:59:06.102Z,237.76
2022-08-30T08:59:51.359Z,235.77
2022-08-30T09:00:36.477Z,223.83
2022-08-30T09:01:21.855Z,238.76
2022-08-30T09:02:06.671Z,233.78
2022-08-30T09:02:55.545Z,229.80
2022-08-30T09:03:36.974Z,207.92
2022-08-30T09:04:22.023Z,232.79
2022-08-30T09:05:06.926Z,223.83
2022-08-30T09:05:51.710Z,224.83
2022-08-30T09:06:36.977Z,208.91
2022-08-30T09:07:22.151Z,243.73
2022-08-30T09:08:09.964Z,241.74
2022-08-30T09:08:52.347Z,228.81
2022-08-30T09:09:37.151Z,261.64
2022-08-30T09:10:40.549Z,251.69
2022-08-30T09:11:07.312Z,254.67
2022-08-30T09:11:52.370Z,256.66
2022-08-30T09:12:37.241Z,237.35
2022-08-30T09:13:22.951Z,247.71
2022-08-30T09:14:07.563Z,222.84
2022-08-30T09:14:55.636Z,241.74
2022-08-30T09:15:37.925Z,223.83
2022-08-30T09:16:22.869Z,209.91
2022-08-30T09:17:07.878Z,216.87
2022-08-30T09:17:52.744Z,194.98
2022-08-30T09:18:38.218Z,211.90
2022-08-30T09:19:22.833Z,205.93
2022-08-30T09:20:07.903Z,198.96
2022-08-30T09:20:52.529Z,206.92
2022-08-30T09:21:37.588Z,215.70
2022-08-30T09:22:23.390Z,149.10